sensor_id;sensor_type;location;lat;lon;timestamp;temperature;humidity
23629;DHT22;11991;57.150;-2.134;2022-12-18T00:01:46;0.90;99.90
23629;DHT22;11991;57.150;-2.134;2022-12-18T00:04:21;0.90;99.90
23629;DHT22;11991;57.150;-2.134;2022-12-18T00:06:50;0.80;99.90
23629;DHT22;11991;57.150;-2.134;2022-12-18T00:09:17;0.80;99.90
23629;DHT22;11991;57.150;-2.134;2022-12-18T00:11:45;0.70;99.90
23629;DHT22;11991;57.150;-2.134;2022-12-18T00:14:12;0.70;99.90
23629;DHT22;11991;57.150;-2.134;2022-12-18T00:16:42;0.70;99.90
23629;DHT22;11991;57.150;-2.134;2022-12-18T00:19:10;0.70;99.90
23629;DHT22;11991;57.150;-2.134;2022-12-18T00:21:38;0.60;99.90
23629;DHT22;11991;57.150;-2.134;2022-12-18T00:24:08;0.60;99.90
23629;DHT22;11991;57.150;-2.134;2022-12-18T00:26:37;0.60;99.90
23629;DHT22;11991;57.150;-2.134;2022-12-18T00:29:11;0.60;99.90
23629;DHT22;11991;57.150;-2.134;2022-12-18T00:31:43;0.60;99.90
23629;DHT22;11991;57.150;-2.134;2022-12-18T00:34:11;0.60;99.90
23629;DHT22;11991;57.150;-2.134;2022-12-18T00:36:40;0.60;99.90
23629;DHT22;11991;57.150;-2.134;2022-12-18T00:39:09;0.60;99.90
23629;DHT22;11991;57.150;-2.134;2022-12-18T00:41:36;0.60;99.90
23629;DHT22;11991;57.150;-2.134;2022-12-18T00:44:22;0.60;99.90
23629;DHT22;11991;57.150;-2.134;2022-12-18T00:46:50;0.50;99.90
23629;DHT22;11991;57.150;-2.134;2022-12-18T00:49:18;0.50;99.90
23629;DHT22;11991;57.150;-2.134;2022-12-18T00:51:47;0.50;99.90
23629;DHT22;11991;57.150;-2.134;2022-12-18T00:54:15;0.50;99.90
23629;DHT22;11991;57.150;-2.134;2022-12-18T00:56:42;0.50;99.90
23629;DHT22;11991;57.150;-2.134;2022-12-18T00:59:19;0.40;99.90
23629;DHT22;11991;57.150;-2.134;2022-12-18T01:01:47;0.50;99.90
23629;DHT22;11991;57.150;-2.134;2022-12-18T01:04:14;0.50;99.90
23629;DHT22;11991;57.150;-2.134;2022-12-18T01:06:44;0.50;99.90
23629;DHT22;11991;57.150;-2.134;2022-12-18T01:09:13;0.40;99.90
23629;DHT22;11991;57.150;-2.134;2022-12-18T01:11:40;0.40;99.90
23629;DHT22;11991;57.150;-2.134;2022-12-18T01:14:07;0.50;99.90
23629;DHT22;11991;57.150;-2.134;2022-12-18T01:16:36;0.40;99.90
23629;DHT22;11991;57.150;-2.134;2022-12-18T01:19:04;0.40;99.90
23629;DHT22;11991;57.150;-2.134;2022-12-18T01:21:31;0.40;99.90
23629;DHT22;11991;57.150;-2.134;2022-12-18T01:24:03;0.30;99.90
23629;DHT22;11991;57.150;-2.134;2022-12-18T01:26:30;0.20;99.90
23629;DHT22;11991;57.150;-2.134;2022-12-18T01:28:57;0.20;99.90
23629;DHT22;11991;57.150;-2.134;2022-12-18T01:31:27;0.20;99.90
23629;DHT22;11991;57.150;-2.134;2022-12-18T01:33:55;0.20;99.90
23629;DHT22;11991;57.150;-2.134;2022-12-18T01:36:28;0.20;99.90
23629;DHT22;11991;57.150;-2.134;2022-12-18T01:38:56;0.20;99.90
23629;DHT22;11991;57.150;-2.134;2022-12-18T01:41:26;0.20;99.90
23629;DHT22;11991;57.150;-2.134;2022-12-18T01:43:56;0.20;99.90
23629;DHT22;11991;57.150;-2.134;2022-12-18T01:46:27;0.20;99.90
23629;DHT22;11991;57.150;-2.134;2022-12-18T01:48:59;0.20;99.90
23629;DHT22;11991;57.150;-2.134;2022-12-18T01:51:27;0.20;99.90
23629;DHT22;11991;57.150;-2.134;2022-12-18T01:53:56;0.20;99.90
23629;DHT22;11991;57.150;-2.134;2022-12-18T01:56:23;0.10;99.90
23629;DHT22;11991;57.150;-2.134;2022-12-18T01:59:01;0.10;99.90
23629;DHT22;11991;57.150;-2.134;2022-12-18T02:01:31;0.10;99.90
23629;DHT22;11991;57.150;-2.134;2022-12-18T02:04:20;0.00;99.90
23629;DHT22;11991;57.150;-2.134;2022-12-18T02:09:48;-0.10;99.90
23629;DHT22;11991;57.150;-2.134;2022-12-18T02:12:25;-0.10;99.90
23629;DHT22;11991;57.150;-2.134;2022-12-18T02:15:13;-0.10;99.90
23629;DHT22;11991;57.150;-2.134;2022-12-18T02:17:48;-0.20;99.90
23629;DHT22;11991;57.150;-2.134;2022-12-18T02:20:31;-0.20;99.90
23629;DHT22;11991;57.150;-2.134;2022-12-18T02:23:24;-0.20;99.90
23629;DHT22;11991;57.150;-2.134;2022-12-18T02:28:46;-0.10;99.90
23629;DHT22;11991;57.150;-2.134;2022-12-18T02:31:20;-0.20;99.90
23629;DHT22;11991;57.150;-2.134;2022-12-18T02:33:54;-0.20;99.90
23629;DHT22;11991;57.150;-2.134;2022-12-18T02:36:26;-0.20;99.90
23629;DHT22;11991;57.150;-2.134;2022-12-18T02:38:56;-0.20;99.90
23629;DHT22;11991;57.150;-2.134;2022-12-18T02:41:25;-0.20;99.90
23629;DHT22;11991;57.150;-2.134;2022-12-18T02:44:00;-0.20;99.90
23629;DHT22;11991;57.150;-2.134;2022-12-18T02:54:52;-0.30;99.90
23629;DHT22;11991;57.150;-2.134;2022-12-18T03:00:16;-0.30;99.90
23629;DHT22;11991;57.150;-2.134;2022-12-18T03:02:59;-0.40;99.90
23629;DHT22;11991;57.150;-2.134;2022-12-18T03:05:33;-0.40;99.90
23629;DHT22;11991;57.150;-2.134;2022-12-18T03:08:08;-0.40;99.90
23629;DHT22;11991;57.150;-2.134;2022-12-18T03:10:44;-0.40;99.90
23629;DHT22;11991;57.150;-2.134;2022-12-18T03:13:23;-0.40;99.90
23629;DHT22;11991;57.150;-2.134;2022-12-18T03:15:54;-0.50;99.90
23629;DHT22;11991;57.150;-2.134;2022-12-18T03:18:31;-0.40;99.90
23629;DHT22;11991;57.150;-2.134;2022-12-18T03:21:04;-0.40;99.90
23629;DHT22;11991;57.150;-2.134;2022-12-18T03:23:46;-0.40;99.90
23629;DHT22;11991;57.150;-2.134;2022-12-18T03:26:18;-0.40;99.90
23629;DHT22;11991;57.150;-2.134;2022-12-18T03:28:55;-0.40;99.90
23629;DHT22;11991;57.150;-2.134;2022-12-18T03:31:26;-0.40;99.90
23629;DHT22;11991;57.150;-2.134;2022-12-18T03:34:01;-0.40;99.90
23629;DHT22;11991;57.150;-2.134;2022-12-18T03:36:39;-0.40;99.90
23629;DHT22;11991;57.150;-2.134;2022-12-18T03:39:06;-0.40;99.90
23629;DHT22;11991;57.150;-2.134;2022-12-18T03:41:51;-0.40;99.90
23629;DHT22;11991;57.150;-2.134;2022-12-18T03:45:02;-0.40;99.90
23629;DHT22;11991;57.150;-2.134;2022-12-18T03:50:17;-0.50;99.90
23629;DHT22;11991;57.150;-2.134;2022-12-18T03:53:06;-0.50;99.90
23629;DHT22;11991;57.150;-2.134;2022-12-18T03:55:36;-0.50;99.90
23629;DHT22;11991;57.150;-2.134;2022-12-18T03:58:07;-0.60;99.90
23629;DHT22;11991;57.150;-2.134;2022-12-18T04:00:48;-0.60;99.90
23629;DHT22;11991;57.150;-2.134;2022-12-18T04:03:18;-0.70;99.90
23629;DHT22;11991;57.150;-2.134;2022-12-18T04:05:54;-0.70;99.90
23629;DHT22;11991;57.150;-2.134;2022-12-18T04:08:23;-0.70;99.90
23629;DHT22;11991;57.150;-2.134;2022-12-18T04:11:00;-0.70;99.90
23629;DHT22;11991;57.150;-2.134;2022-12-18T04:13:32;-0.80;99.90
23629;DHT22;11991;57.150;-2.134;2022-12-18T04:16:01;-0.80;99.90
23629;DHT22;11991;57.150;-2.134;2022-12-18T04:18:29;-0.80;99.90
23629;DHT22;11991;57.150;-2.134;2022-12-18T04:20:59;-0.80;99.90
23629;DHT22;11991;57.150;-2.134;2022-12-18T04:23:26;-0.90;99.90
23629;DHT22;11991;57.150;-2.134;2022-12-18T04:25:56;-0.90;99.90
23629;DHT22;11991;57.150;-2.134;2022-12-18T04:28:38;-0.90;99.90
23629;DHT22;11991;57.150;-2.134;2022-12-18T04:31:05;-1.00;99.90
23629;DHT22;11991;57.150;-2.134;2022-12-18T04:33:32;-1.00;99.90
23629;DHT22;11991;57.150;-2.134;2022-12-18T04:36:00;-1.00;99.90
23629;DHT22;11991;57.150;-2.134;2022-12-18T04:38:27;-1.00;99.90
23629;DHT22;11991;57.150;-2.134;2022-12-18T04:41:02;-1.10;99.90
23629;DHT22;11991;57.150;-2.134;2022-12-18T04:43:30;-1.10;99.90
23629;DHT22;11991;57.150;-2.134;2022-12-18T04:46:07;-1.10;99.90
23629;DHT22;11991;57.150;-2.134;2022-12-18T04:48:35;-1.10;99.90
23629;DHT22;11991;57.150;-2.134;2022-12-18T04:51:04;-1.10;99.90
23629;DHT22;11991;57.150;-2.134;2022-12-18T04:53:31;-1.10;99.90
23629;DHT22;11991;57.150;-2.134;2022-12-18T04:56:03;-1.10;99.90
23629;DHT22;11991;57.150;-2.134;2022-12-18T04:58:31;-1.00;99.90
23629;DHT22;11991;57.150;-2.134;2022-12-18T05:00:58;-1.00;99.90
23629;DHT22;11991;57.150;-2.134;2022-12-18T05:03:25;-0.90;99.90
23629;DHT22;11991;57.150;-2.134;2022-12-18T05:05:52;-0.70;99.90
23629;DHT22;11991;57.150;-2.134;2022-12-18T05:08:19;-0.60;99.90
23629;DHT22;11991;57.150;-2.134;2022-12-18T05:10:47;-0.50;99.90
23629;DHT22;11991;57.150;-2.134;2022-12-18T05:13:14;-0.40;99.90
23629;DHT22;11991;57.150;-2.134;2022-12-18T05:15:41;-0.30;99.90
23629;DHT22;11991;57.150;-2.134;2022-12-18T05:18:08;-0.20;99.90
23629;DHT22;11991;57.150;-2.134;2022-12-18T05:20:35;-0.20;99.90
23629;DHT22;11991;57.150;-2.134;2022-12-18T05:23:03;-0.10;99.90
23629;DHT22;11991;57.150;-2.134;2022-12-18T05:25:30;0.00;99.90
23629;DHT22;11991;57.150;-2.134;2022-12-18T05:27:57;0.00;99.90
23629;DHT22;11991;57.150;-2.134;2022-12-18T05:30:25;0.00;99.90
23629;DHT22;11991;57.150;-2.134;2022-12-18T05:32:53;0.00;99.90
23629;DHT22;11991;57.150;-2.134;2022-12-18T05:35:20;0.10;99.90
23629;DHT22;11991;57.150;-2.134;2022-12-18T05:37:48;0.10;99.90
23629;DHT22;11991;57.150;-2.134;2022-12-18T05:40:15;0.10;99.90
23629;DHT22;11991;57.150;-2.134;2022-12-18T05:42:42;0.20;99.90
23629;DHT22;11991;57.150;-2.134;2022-12-18T05:45:09;0.20;99.90
23629;DHT22;11991;57.150;-2.134;2022-12-18T05:47:36;0.30;99.90
23629;DHT22;11991;57.150;-2.134;2022-12-18T05:50:04;0.30;99.90
23629;DHT22;11991;57.150;-2.134;2022-12-18T05:52:31;0.30;99.90
23629;DHT22;11991;57.150;-2.134;2022-12-18T05:54:58;0.40;99.90
23629;DHT22;11991;57.150;-2.134;2022-12-18T05:57:25;0.40;99.90
23629;DHT22;11991;57.150;-2.134;2022-12-18T05:59:53;0.40;99.90
23629;DHT22;11991;57.150;-2.134;2022-12-18T06:02:20;0.50;99.90
23629;DHT22;11991;57.150;-2.134;2022-12-18T06:04:48;0.50;99.90
23629;DHT22;11991;57.150;-2.134;2022-12-18T06:07:15;0.50;99.90
23629;DHT22;11991;57.150;-2.134;2022-12-18T06:09:42;0.50;99.90
23629;DHT22;11991;57.150;-2.134;2022-12-18T06:12:09;0.40;99.90
23629;DHT22;11991;57.150;-2.134;2022-12-18T06:14:37;0.50;99.90
23629;DHT22;11991;57.150;-2.134;2022-12-18T06:17:04;0.50;99.90
23629;DHT22;11991;57.150;-2.134;2022-12-18T06:19:31;0.50;99.90
23629;DHT22;11991;57.150;-2.134;2022-12-18T06:21:58;0.40;99.90
23629;DHT22;11991;57.150;-2.134;2022-12-18T06:24:25;0.40;99.90
23629;DHT22;11991;57.150;-2.134;2022-12-18T06:26:53;0.40;99.90
23629;DHT22;11991;57.150;-2.134;2022-12-18T06:29:20;0.40;99.90
23629;DHT22;11991;57.150;-2.134;2022-12-18T06:31:47;0.40;99.90
23629;DHT22;11991;57.150;-2.134;2022-12-18T06:34:15;0.50;99.90
23629;DHT22;11991;57.150;-2.134;2022-12-18T06:36:42;0.50;99.90
23629;DHT22;11991;57.150;-2.134;2022-12-18T06:39:09;0.50;99.90
23629;DHT22;11991;57.150;-2.134;2022-12-18T06:41:36;0.50;99.90
23629;DHT22;11991;57.150;-2.134;2022-12-18T06:44:05;0.50;99.90
23629;DHT22;11991;57.150;-2.134;2022-12-18T06:46:32;0.50;99.90
23629;DHT22;11991;57.150;-2.134;2022-12-18T06:48:59;0.50;99.90
23629;DHT22;11991;57.150;-2.134;2022-12-18T06:51:26;0.50;99.90
23629;DHT22;11991;57.150;-2.134;2022-12-18T06:53:53;0.50;99.90
23629;DHT22;11991;57.150;-2.134;2022-12-18T06:56:21;0.50;99.90
23629;DHT22;11991;57.150;-2.134;2022-12-18T06:58:51;0.50;99.90
23629;DHT22;11991;57.150;-2.134;2022-12-18T07:01:18;0.50;99.90
23629;DHT22;11991;57.150;-2.134;2022-12-18T07:03:45;0.50;99.90
23629;DHT22;11991;57.150;-2.134;2022-12-18T07:06:15;0.50;99.90
23629;DHT22;11991;57.150;-2.134;2022-12-18T07:08:44;0.60;99.90
23629;DHT22;11991;57.150;-2.134;2022-12-18T07:11:11;0.60;99.90
23629;DHT22;11991;57.150;-2.134;2022-12-18T07:13:39;0.60;99.90
23629;DHT22;11991;57.150;-2.134;2022-12-18T07:16:13;0.60;99.90
23629;DHT22;11991;57.150;-2.134;2022-12-18T07:18:49;0.60;99.90
23629;DHT22;11991;57.150;-2.134;2022-12-18T07:21:19;0.60;99.90
23629;DHT22;11991;57.150;-2.134;2022-12-18T07:23:46;0.60;99.90
23629;DHT22;11991;57.150;-2.134;2022-12-18T07:26:16;0.60;99.90
23629;DHT22;11991;57.150;-2.134;2022-12-18T07:28:44;0.60;99.90
23629;DHT22;11991;57.150;-2.134;2022-12-18T07:31:14;0.60;99.90
23629;DHT22;11991;57.150;-2.134;2022-12-18T07:33:42;0.60;99.90
23629;DHT22;11991;57.150;-2.134;2022-12-18T07:36:10;0.60;99.90
23629;DHT22;11991;57.150;-2.134;2022-12-18T07:38:38;0.60;99.90
23629;DHT22;11991;57.150;-2.134;2022-12-18T07:41:10;0.70;99.90
23629;DHT22;11991;57.150;-2.134;2022-12-18T07:43:38;0.70;99.90
23629;DHT22;11991;57.150;-2.134;2022-12-18T07:46:08;0.80;99.90
23629;DHT22;11991;57.150;-2.134;2022-12-18T07:48:38;0.80;99.90
23629;DHT22;11991;57.150;-2.134;2022-12-18T07:51:06;0.80;99.90
23629;DHT22;11991;57.150;-2.134;2022-12-18T07:53:34;0.90;99.90
23629;DHT22;11991;57.150;-2.134;2022-12-18T07:56:05;1.00;99.90
23629;DHT22;11991;57.150;-2.134;2022-12-18T07:58:53;1.00;99.90
23629;DHT22;11991;57.150;-2.134;2022-12-18T08:01:20;1.00;99.90
23629;DHT22;11991;57.150;-2.134;2022-12-18T08:03:48;1.00;99.90
23629;DHT22;11991;57.150;-2.134;2022-12-18T08:06:18;1.00;99.90
23629;DHT22;11991;57.150;-2.134;2022-12-18T08:08:54;1.10;99.90
23629;DHT22;11991;57.150;-2.134;2022-12-18T08:11:23;1.10;99.90
23629;DHT22;11991;57.150;-2.134;2022-12-18T08:13:51;1.10;99.90
23629;DHT22;11991;57.150;-2.134;2022-12-18T08:16:20;1.20;99.90
23629;DHT22;11991;57.150;-2.134;2022-12-18T08:18:48;1.20;99.90
23629;DHT22;11991;57.150;-2.134;2022-12-18T08:21:19;1.20;99.90
23629;DHT22;11991;57.150;-2.134;2022-12-18T08:23:48;1.30;99.90
23629;DHT22;11991;57.150;-2.134;2022-12-18T08:26:18;1.30;99.90
23629;DHT22;11991;57.150;-2.134;2022-12-18T08:28:46;1.40;99.90
23629;DHT22;11991;57.150;-2.134;2022-12-18T08:31:15;1.40;99.90
23629;DHT22;11991;57.150;-2.134;2022-12-18T08:33:42;1.40;99.90
23629;DHT22;11991;57.150;-2.134;2022-12-18T08:36:10;1.40;99.90
23629;DHT22;11991;57.150;-2.134;2022-12-18T08:38:37;1.50;99.90
23629;DHT22;11991;57.150;-2.134;2022-12-18T08:41:06;1.50;99.90
23629;DHT22;11991;57.150;-2.134;2022-12-18T08:43:34;1.50;99.90
23629;DHT22;11991;57.150;-2.134;2022-12-18T08:46:22;1.60;99.90
23629;DHT22;11991;57.150;-2.134;2022-12-18T08:48:51;1.60;99.90
23629;DHT22;11991;57.150;-2.134;2022-12-18T08:51:19;1.60;99.90
23629;DHT22;11991;57.150;-2.134;2022-12-18T08:53:47;1.60;99.90
23629;DHT22;11991;57.150;-2.134;2022-12-18T08:56:14;1.60;99.90
23629;DHT22;11991;57.150;-2.134;2022-12-18T08:58:42;1.70;99.90
23629;DHT22;11991;57.150;-2.134;2022-12-18T09:01:10;1.70;99.90
23629;DHT22;11991;57.150;-2.134;2022-12-18T09:03:40;1.70;99.90
23629;DHT22;11991;57.150;-2.134;2022-12-18T09:06:09;1.70;99.90
23629;DHT22;11991;57.150;-2.134;2022-12-18T09:08:36;1.80;99.90
23629;DHT22;11991;57.150;-2.134;2022-12-18T09:11:04;1.80;99.90
23629;DHT22;11991;57.150;-2.134;2022-12-18T09:13:32;1.90;99.90
23629;DHT22;11991;57.150;-2.134;2022-12-18T09:16:03;1.90;99.90
23629;DHT22;11991;57.150;-2.134;2022-12-18T09:18:30;1.90;99.90
23629;DHT22;11991;57.150;-2.134;2022-12-18T09:20:57;1.90;99.90
23629;DHT22;11991;57.150;-2.134;2022-12-18T09:23:27;2.00;99.90
23629;DHT22;11991;57.150;-2.134;2022-12-18T09:25:59;2.00;99.90
23629;DHT22;11991;57.150;-2.134;2022-12-18T09:28:27;2.10;99.90
23629;DHT22;11991;57.150;-2.134;2022-12-18T09:30:56;2.10;99.90
23629;DHT22;11991;57.150;-2.134;2022-12-18T09:33:50;2.20;99.90
23629;DHT22;11991;57.150;-2.134;2022-12-18T09:36:17;2.20;99.90
23629;DHT22;11991;57.150;-2.134;2022-12-18T09:38:47;2.30;99.90
23629;DHT22;11991;57.150;-2.134;2022-12-18T09:44:42;2.40;99.90
23629;DHT22;11991;57.150;-2.134;2022-12-18T09:47:34;2.50;99.90
23629;DHT22;11991;57.150;-2.134;2022-12-18T09:50:15;2.60;99.90
23629;DHT22;11991;57.150;-2.134;2022-12-18T09:52:50;2.70;99.90
23629;DHT22;11991;57.150;-2.134;2022-12-18T09:55:30;2.80;99.90
23629;DHT22;11991;57.150;-2.134;2022-12-18T09:58:19;2.90;99.90
23629;DHT22;11991;57.150;-2.134;2022-12-18T10:00:52;2.90;99.90
23629;DHT22;11991;57.150;-2.134;2022-12-18T10:03:19;3.10;99.90
23629;DHT22;11991;57.150;-2.134;2022-12-18T10:06:02;3.20;99.90
23629;DHT22;11991;57.150;-2.134;2022-12-18T10:11:37;3.40;99.90
23629;DHT22;11991;57.150;-2.134;2022-12-18T10:14:37;3.50;99.90
23629;DHT22;11991;57.150;-2.134;2022-12-18T10:20:40;3.60;99.90
23629;DHT22;11991;57.150;-2.134;2022-12-18T10:23:39;3.70;99.90
23629;DHT22;11991;57.150;-2.134;2022-12-18T10:26:14;3.70;99.90
23629;DHT22;11991;57.150;-2.134;2022-12-18T10:28:43;3.80;99.90
23629;DHT22;11991;57.150;-2.134;2022-12-18T10:31:22;3.80;99.90
23629;DHT22;11991;57.150;-2.134;2022-12-18T10:33:51;3.80;99.90
23629;DHT22;11991;57.150;-2.134;2022-12-18T10:36:23;3.90;99.90
23629;DHT22;11991;57.150;-2.134;2022-12-18T10:38:52;3.90;99.90
23629;DHT22;11991;57.150;-2.134;2022-12-18T10:46:38;4.00;99.90
23629;DHT22;11991;57.150;-2.134;2022-12-18T10:49:22;4.10;99.90
23629;DHT22;11991;57.150;-2.134;2022-12-18T10:52:23;4.10;99.90
23629;DHT22;11991;57.150;-2.134;2022-12-18T10:55:00;4.10;99.90
23629;DHT22;11991;57.150;-2.134;2022-12-18T11:00:28;4.20;99.90
23629;DHT22;11991;57.150;-2.134;2022-12-18T11:02:58;4.20;99.90
23629;DHT22;11991;57.150;-2.134;2022-12-18T11:05:33;4.30;99.90
23629;DHT22;11991;57.150;-2.134;2022-12-18T11:08:01;4.30;99.90
23629;DHT22;11991;57.150;-2.134;2022-12-18T11:10:35;4.30;99.90
23629;DHT22;11991;57.150;-2.134;2022-12-18T11:13:18;4.40;99.90
23629;DHT22;11991;57.150;-2.134;2022-12-18T11:15:46;4.40;99.90
23629;DHT22;11991;57.150;-2.134;2022-12-18T11:21:12;4.60;99.90
23629;DHT22;11991;57.150;-2.134;2022-12-18T11:23:53;4.60;99.90
23629;DHT22;11991;57.150;-2.134;2022-12-18T11:26:34;4.60;99.90
23629;DHT22;11991;57.150;-2.134;2022-12-18T11:29:09;4.60;99.90
23629;DHT22;11991;57.150;-2.134;2022-12-18T11:31:37;4.60;99.90
23629;DHT22;11991;57.150;-2.134;2022-12-18T11:34:29;4.60;99.90
23629;DHT22;11991;57.150;-2.134;2022-12-18T11:36:59;4.60;99.90
23629;DHT22;11991;57.150;-2.134;2022-12-18T11:39:40;4.60;99.90
23629;DHT22;11991;57.150;-2.134;2022-12-18T11:42:34;4.60;99.90
23629;DHT22;11991;57.150;-2.134;2022-12-18T11:53:11;4.80;99.90
23629;DHT22;11991;57.150;-2.134;2022-12-18T12:01:02;4.80;99.90
23629;DHT22;11991;57.150;-2.134;2022-12-18T12:12:37;4.80;99.90
23629;DHT22;11991;57.150;-2.134;2022-12-18T12:18:31;4.80;99.90
23629;DHT22;11991;57.150;-2.134;2022-12-18T12:38:31;4.90;99.90
23629;DHT22;11991;57.150;-2.134;2022-12-18T12:41:05;5.00;99.90
23629;DHT22;11991;57.150;-2.134;2022-12-18T12:44:44;5.00;99.90
23629;DHT22;11991;57.150;-2.134;2022-12-18T12:47:22;5.00;99.90
23629;DHT22;11991;57.150;-2.134;2022-12-18T12:49:51;5.00;99.90
23629;DHT22;11991;57.150;-2.134;2022-12-18T12:52:42;5.00;99.90
23629;DHT22;11991;57.150;-2.134;2022-12-18T12:55:22;5.00;99.90
23629;DHT22;11991;57.150;-2.134;2022-12-18T12:57:54;5.00;99.90
23629;DHT22;11991;57.150;-2.134;2022-12-18T13:00:29;4.90;99.90
23629;DHT22;11991;57.150;-2.134;2022-12-18T13:04:02;4.90;99.90
23629;DHT22;11991;57.150;-2.134;2022-12-18T13:06:37;4.90;99.90
23629;DHT22;11991;57.150;-2.134;2022-12-18T13:09:10;4.90;99.90
23629;DHT22;11991;57.150;-2.134;2022-12-18T13:11:41;4.90;99.90
23629;DHT22;11991;57.150;-2.134;2022-12-18T13:14:31;4.80;99.90
23629;DHT22;11991;57.150;-2.134;2022-12-18T13:17:16;4.80;99.90
23629;DHT22;11991;57.150;-2.134;2022-12-18T13:19:51;4.80;99.90
23629;DHT22;11991;57.150;-2.134;2022-12-18T13:22:37;4.80;99.90
23629;DHT22;11991;57.150;-2.134;2022-12-18T13:25:36;4.80;99.90
23629;DHT22;11991;57.150;-2.134;2022-12-18T13:28:20;4.80;99.90
23629;DHT22;11991;57.150;-2.134;2022-12-18T13:30:57;4.80;99.90
23629;DHT22;11991;57.150;-2.134;2022-12-18T13:33:49;4.80;99.90
23629;DHT22;11991;57.150;-2.134;2022-12-18T13:36:36;4.80;99.90
23629;DHT22;11991;57.150;-2.134;2022-12-18T13:45:01;4.80;99.90
23629;DHT22;11991;57.150;-2.134;2022-12-18T13:47:34;4.80;99.90
23629;DHT22;11991;57.150;-2.134;2022-12-18T13:50:27;4.70;99.90
23629;DHT22;11991;57.150;-2.134;2022-12-18T13:53:04;4.70;99.90
23629;DHT22;11991;57.150;-2.134;2022-12-18T13:55:32;4.70;99.90
23629;DHT22;11991;57.150;-2.134;2022-12-18T13:58:06;4.70;99.90
23629;DHT22;11991;57.150;-2.134;2022-12-18T14:00:35;4.70;99.90
23629;DHT22;11991;57.150;-2.134;2022-12-18T14:03:15;4.60;99.90
23629;DHT22;11991;57.150;-2.134;2022-12-18T14:06:06;4.60;99.90
23629;DHT22;11991;57.150;-2.134;2022-12-18T14:08:38;4.60;99.90
23629;DHT22;11991;57.150;-2.134;2022-12-18T14:11:07;4.60;99.90
23629;DHT22;11991;57.150;-2.134;2022-12-18T14:13:42;4.60;99.90
23629;DHT22;11991;57.150;-2.134;2022-12-18T14:16:13;4.60;99.90
23629;DHT22;11991;57.150;-2.134;2022-12-18T14:18:50;4.50;99.90
23629;DHT22;11991;57.150;-2.134;2022-12-18T14:21:32;4.50;99.90
23629;DHT22;11991;57.150;-2.134;2022-12-18T14:24:20;4.50;99.90
23629;DHT22;11991;57.150;-2.134;2022-12-18T14:26:51;4.50;99.90
23629;DHT22;11991;57.150;-2.134;2022-12-18T14:32:16;4.50;99.90
23629;DHT22;11991;57.150;-2.134;2022-12-18T14:34:46;4.50;99.90
23629;DHT22;11991;57.150;-2.134;2022-12-18T14:37:21;4.50;99.90
23629;DHT22;11991;57.150;-2.134;2022-12-18T14:39:58;4.50;99.90
23629;DHT22;11991;57.150;-2.134;2022-12-18T14:42:37;4.50;99.90
23629;DHT22;11991;57.150;-2.134;2022-12-18T14:45:33;4.50;99.90
23629;DHT22;11991;57.150;-2.134;2022-12-18T14:53:42;4.50;99.90
23629;DHT22;11991;57.150;-2.134;2022-12-18T14:56:31;4.60;99.90
23629;DHT22;11991;57.150;-2.134;2022-12-18T14:59:06;4.60;99.90
23629;DHT22;11991;57.150;-2.134;2022-12-18T15:04:38;4.60;99.90
23629;DHT22;11991;57.150;-2.134;2022-12-18T15:07:46;4.60;99.90
23629;DHT22;11991;57.150;-2.134;2022-12-18T15:23:51;4.60;99.90
23629;DHT22;11991;57.150;-2.134;2022-12-18T15:26:21;4.60;99.90
23629;DHT22;11991;57.150;-2.134;2022-12-18T15:28:56;4.60;99.90
23629;DHT22;11991;57.150;-2.134;2022-12-18T15:31:31;4.60;99.90
23629;DHT22;11991;57.150;-2.134;2022-12-18T15:34:12;4.70;99.90
23629;DHT22;11991;57.150;-2.134;2022-12-18T15:36:41;4.70;99.90
23629;DHT22;11991;57.150;-2.134;2022-12-18T15:39:11;4.70;99.90
23629;DHT22;11991;57.150;-2.134;2022-12-18T15:45:42;4.70;99.90
23629;DHT22;11991;57.150;-2.134;2022-12-18T15:48:39;4.70;99.90
23629;DHT22;11991;57.150;-2.134;2022-12-18T15:51:23;4.70;99.90
23629;DHT22;11991;57.150;-2.134;2022-12-18T15:53:54;4.80;99.90
23629;DHT22;11991;57.150;-2.134;2022-12-18T15:56:23;4.80;99.90
23629;DHT22;11991;57.150;-2.134;2022-12-18T15:59:15;4.90;99.90
23629;DHT22;11991;57.150;-2.134;2022-12-18T16:01:49;4.90;99.90
23629;DHT22;11991;57.150;-2.134;2022-12-18T16:04:20;4.90;99.90
23629;DHT22;11991;57.150;-2.134;2022-12-18T16:07:12;5.00;99.90
23629;DHT22;11991;57.150;-2.134;2022-12-18T16:09:49;5.00;99.90
23629;DHT22;11991;57.150;-2.134;2022-12-18T16:12:21;5.00;99.90
23629;DHT22;11991;57.150;-2.134;2022-12-18T16:14:51;5.00;99.90
23629;DHT22;11991;57.150;-2.134;2022-12-18T16:17:19;5.00;99.90
23629;DHT22;11991;57.150;-2.134;2022-12-18T16:19:47;5.10;99.90
23629;DHT22;11991;57.150;-2.134;2022-12-18T16:22:23;5.10;99.90
23629;DHT22;11991;57.150;-2.134;2022-12-18T16:24:53;5.10;99.90
23629;DHT22;11991;57.150;-2.134;2022-12-18T16:27:23;5.10;99.90
23629;DHT22;11991;57.150;-2.134;2022-12-18T16:29:51;5.10;99.90
23629;DHT22;11991;57.150;-2.134;2022-12-18T16:32:21;5.10;99.90
23629;DHT22;11991;57.150;-2.134;2022-12-18T16:34:50;5.10;99.90
23629;DHT22;11991;57.150;-2.134;2022-12-18T16:37:19;5.20;99.90
23629;DHT22;11991;57.150;-2.134;2022-12-18T16:39:48;5.20;99.90
23629;DHT22;11991;57.150;-2.134;2022-12-18T16:42:19;5.20;99.90
23629;DHT22;11991;57.150;-2.134;2022-12-18T16:44:48;5.10;99.90
23629;DHT22;11991;57.150;-2.134;2022-12-18T16:47:19;5.10;99.90
23629;DHT22;11991;57.150;-2.134;2022-12-18T16:49:50;5.10;99.90
23629;DHT22;11991;57.150;-2.134;2022-12-18T16:52:53;5.20;99.90
23629;DHT22;11991;57.150;-2.134;2022-12-18T16:55:21;5.20;99.90
23629;DHT22;11991;57.150;-2.134;2022-12-18T16:57:49;5.20;99.90
23629;DHT22;11991;57.150;-2.134;2022-12-18T17:00:16;5.10;99.90
23629;DHT22;11991;57.150;-2.134;2022-12-18T17:03:09;5.20;99.90
23629;DHT22;11991;57.150;-2.134;2022-12-18T17:05:39;5.20;99.90
23629;DHT22;11991;57.150;-2.134;2022-12-18T17:08:06;5.20;99.90
23629;DHT22;11991;57.150;-2.134;2022-12-18T17:10:36;5.20;99.90
23629;DHT22;11991;57.150;-2.134;2022-12-18T17:13:03;5.30;99.90
23629;DHT22;11991;57.150;-2.134;2022-12-18T17:15:34;5.30;99.90
23629;DHT22;11991;57.150;-2.134;2022-12-18T17:18:06;5.30;99.90
23629;DHT22;11991;57.150;-2.134;2022-12-18T17:20:34;5.30;99.90
23629;DHT22;11991;57.150;-2.134;2022-12-18T17:23:03;5.30;99.90
23629;DHT22;11991;57.150;-2.134;2022-12-18T17:25:31;5.30;99.90
23629;DHT22;11991;57.150;-2.134;2022-12-18T17:28:05;5.30;99.90
23629;DHT22;11991;57.150;-2.134;2022-12-18T17:30:57;5.30;99.90
23629;DHT22;11991;57.150;-2.134;2022-12-18T17:33:24;5.30;99.90
23629;DHT22;11991;57.150;-2.134;2022-12-18T17:35:52;5.30;99.90
23629;DHT22;11991;57.150;-2.134;2022-12-18T17:38:20;5.30;99.90
23629;DHT22;11991;57.150;-2.134;2022-12-18T17:40:47;5.30;99.90
23629;DHT22;11991;57.150;-2.134;2022-12-18T17:43:17;5.30;99.90
23629;DHT22;11991;57.150;-2.134;2022-12-18T17:45:44;5.30;99.90
23629;DHT22;11991;57.150;-2.134;2022-12-18T17:48:21;5.20;99.90
23629;DHT22;11991;57.150;-2.134;2022-12-18T17:51:15;5.20;99.90
23629;DHT22;11991;57.150;-2.134;2022-12-18T17:53:44;5.20;99.90
23629;DHT22;11991;57.150;-2.134;2022-12-18T17:56:17;5.20;99.90
23629;DHT22;11991;57.150;-2.134;2022-12-18T17:58:47;5.10;99.90
23629;DHT22;11991;57.150;-2.134;2022-12-18T18:01:23;5.10;99.90
23629;DHT22;11991;57.150;-2.134;2022-12-18T18:03:52;5.10;99.90